Time;durP1;ratioP1;P1;durP2;ratioP2;P2;SDS_P1;SDS_P2;PMS_P1;PMS_P2;Temp;Humidity;BMP_temperature;BMP_pressure;BME280_temperature;BME280_humidity;BME280_pressure;Samples;Min_cycle;Max_cycle;Signal;HPM_P1;HPM_P2
2021/10/21 00:00:04;;;;;;;27.30;19.55;;;;;;;12.25;68.26;100325.06;4845794;29;20036;-60
2021/10/21 00:02:30;;;;;;;25.63;19.08;;;;;;;12.30;68.08;100318.97;4845639;29;20029;-58
2021/10/21 00:04:55;;;;;;;24.60;18.05;;;;;;;12.32;67.53;100308.06;4845851;29;20033;-59
2021/10/21 00:07:20;;;;;;;25.50;18.00;;;;;;;12.35;68.20;100308.06;4829615;29;20327;-59
2021/10/21 00:09:46;;;;;;;28.25;17.40;;;;;;;12.38;67.85;100309.25;4845673;29;20330;-59
2021/10/21 00:12:11;;;;;;;24.55;17.30;;;;;;;12.43;67.42;100303.16;4845345;29;20033;-59
2021/10/21 00:14:36;;;;;;;23.33;16.05;;;;;;;12.46;67.38;100295.88;4829628;29;20090;-60
2021/10/21 00:17:05;;;;;;;23.90;15.43;;;;;;;12.47;67.29;100292.63;4845309;29;20038;-60
2021/10/21 00:19:30;;;;;;;22.80;14.40;;;;;;;12.49;67.41;100278.91;4845398;29;20449;-54
2021/10/21 00:21:55;;;;;;;18.20;13.65;;;;;;;12.51;67.14;100284.94;4845344;29;20030;-63
2021/10/21 00:24:21;;;;;;;20.50;13.52;;;;;;;12.52;67.28;100278.06;4845200;29;20033;-56
2021/10/21 00:26:47;;;;;;;18.77;11.65;;;;;;;12.53;67.28;100273.25;4843380;29;20018;-57
2021/10/21 00:29:12;;;;;;;19.92;11.50;;;;;;;12.60;67.19;100276.81;4845613;29;20030;-58
2021/10/21 00:31:38;;;;;;;17.35;11.57;;;;;;;12.67;66.82;100273.91;4845452;29;20026;-56
2021/10/21 00:34:03;;;;;;;17.38;11.40;;;;;;;12.69;66.47;100274.28;4845175;29;20078;-58
2021/10/21 00:36:29;;;;;;;20.00;11.30;;;;;;;12.73;66.47;100273.44;4845384;29;20033;-56
2021/10/21 00:38:58;;;;;;;15.38;10.43;;;;;;;12.76;66.50;100266.94;4845139;29;20034;-56
2021/10/21 00:41:23;;;;;;;21.20;11.23;;;;;;;12.77;66.33;100266.53;4843939;29;20435;-58
2021/10/21 00:43:49;;;;;;;16.63;10.52;;;;;;;12.80;66.49;100270.53;4844951;29;20094;-57
2021/10/21 00:46:15;;;;;;;14.23;9.63;;;;;;;12.85;66.51;100267.22;4845070;29;20081;-56
2021/10/21 00:48:42;;;;;;;14.27;10.07;;;;;;;12.82;66.35;100254.78;4844860;29;20026;-58
2021/10/21 00:51:13;;;;;;;12.52;9.73;;;;;;;12.84;66.00;100260.78;4845097;29;20041;-54
2021/10/21 00:53:39;;;;;;;;;;;;;;;12.84;66.41;100255.16;4845370;29;20057;-58
2021/10/21 00:56:07;;;;;;;18.05;10.93;;;;;;;12.83;66.01;100252.75;4844490;29;19952;-58
2021/10/21 00:58:34;;;;;;;14.48;10.80;;;;;;;12.87;65.81;100242.22;4844560;29;20037;-56
2021/10/21 01:01:00;;;;;;;14.43;10.95;;;;;;;12.86;65.48;100241.41;4844157;29;20375;-58
2021/10/21 01:03:26;;;;;;;21.75;12.23;;;;;;;12.86;66.09;100246.25;4844544;29;20033;-59
2021/10/21 01:05:51;;;;;;;20.13;11.35;;;;;;;12.86;65.76;100234.97;4844839;29;20028;-58
2021/10/21 01:08:17;;;;;;;17.23;11.55;;;;;;;12.85;66.02;100228.53;4845043;29;20026;-58
2021/10/21 01:10:44;;;;;;;22.42;11.63;;;;;;;12.84;65.82;100217.69;4844423;29;20038;-55
2021/10/21 01:13:09;;;;;;;17.33;11.90;;;;;;;12.83;65.82;100216.88;4844478;29;20032;-58
2021/10/21 01:15:35;;;;;;;15.15;11.45;;;;;;;12.86;65.70;100210.41;4844659;29;20037;-57
2021/10/21 01:18:01;;;;;;;21.52;13.20;;;;;;;12.89;65.50;100211.59;4844362;29;20081;-58
2021/10/21 01:20:30;;;;;;;19.45;12.18;;;;;;;12.88;65.79;100204.34;4844418;29;20037;-57
2021/10/21 01:22:55;;;;;;;17.30;13.23;;;;;;;12.91;65.19;100209.16;4844433;29;20026;-58
2021/10/21 01:25:21;;;;;;;22.48;14.48;;;;;;;12.93;65.59;100209.53;4844440;29;20038;-58
2021/10/21 01:27:48;;;;;;;20.13;14.15;;;;;;;12.93;65.48;100213.16;4843772;29;20026;-58
2021/10/21 01:30:22;;;;;;;20.17;14.60;;;;;;;12.94;65.22;100180.09;4843327;29;20112;-58
2021/10/21 01:32:49;;;;;;;23.10;14.65;;;;;;;12.96;65.06;100189.72;4844214;29;20032;-58
2021/10/21 01:35:15;;;;;;;22.75;14.80;;;;;;;12.94;65.14;100194.19;4844199;29;20033;-58
2021/10/21 01:37:41;;;;;;;24.90;14.82;;;;;;;12.92;65.47;100185.34;4844338;29;20113;-51
2021/10/21 01:40:10;;;;;;;21.42;15.07;;;;;;;12.89;65.14;100178.53;4843891;29;20034;-58
2021/10/21 01:42:39;;;;;;;20.20;14.27;;;;;;;12.89;65.81;100178.53;4844610;29;20117;-58
2021/10/21 01:45:20;;;;;;;22.35;14.77;;;;;;;12.90;65.87;100179.34;4844627;29;20058;-57
2021/10/21 01:47:46;;;;;;;18.58;14.25;;;;;;;12.87;65.27;100180.97;4844156;29;20049;-58
2021/10/21 01:50:12;;;;;;;21.90;15.20;;;;;;;12.89;65.52;100178.53;4844506;29;20026;-58
2021/10/21 01:52:38;;;;;;;21.90;15.00;;;;;;;12.86;65.30;100170.91;4846347;29;20052;-58
2021/10/21 01:55:06;;;;;;;22.38;14.70;;;;;;;12.82;65.94;100166.53;4847565;29;20398;-58
2021/10/21 01:57:31;;;;;;;20.75;14.35;;;;;;;12.80;65.83;100160.53;4848061;29;20040;-58
2021/10/21 01:59:57;;;;;;;21.92;15.98;;;;;;;12.82;65.84;100155.25;4847971;29;20322;-56
2021/10/21 02:02:22;;;;;;;20.27;13.93;;;;;;;12.82;65.91;100158.88;4830887;29;20470;-60
2021/10/21 02:04:47;;;;;;;28.60;15.13;;;;;;;12.85;65.89;100165.69;4848073;29;20045;-58
2021/10/21 02:07:12;;;;;;;22.48;14.77;;;;;;;12.82;65.80;100167.34;4847401;29;20018;-59
2021/10/21 02:09:38;;;;;;;23.73;14.93;;;;;;;12.85;65.67;100160.03;4847640;29;20109;-58
2021/10/21 02:12:03;;;;;;;20.70;14.07;;;;;;;12.82;66.21;100163.72;4847198;29;20045;-58
2021/10/21 02:14:29;;;;;;;19.63;13.57;;;;;;;12.82;66.02;100155.25;4847796;29;20033;-57
2021/10/21 02:16:54;;;;;;;21.58;13.65;;;;;;;12.84;66.23;100158.44;4847472;29;20103;-60
2021/10/21 02:19:19;;;;;;;19.30;13.50;;;;;;;12.88;65.71;100150.75;4847174;29;20121;-58
2021/10/21 02:21:45;;;;;;;20.80;13.57;;;;;;;12.95;65.61;100150.66;4847469;29;20034;-58
2021/10/21 02:24:10;;;;;;;19.50;13.07;;;;;;;12.97;65.77;100143.38;4847262;29;20052;-56
2021/10/21 02:26:35;;;;;;;22.00;12.50;;;;;;;13.02;65.48;100141.28;4847267;29;20478;-56
2021/10/21 02:29:01;;;;;;;14.35;11.65;;;;;;;13.04;66.18;100139.63;4847278;29;20026;-54
2021/10/21 02:31:26;;;;;;;18.48;12.38;;;;;;;13.06;65.92;100134.34;4847365;29;20022;-54
2021/10/21 02:33:51;;;;;;;19.27;12.38;;;;;;;13.08;65.74;100134.72;4847622;29;20326;-56
2021/10/21 02:36:17;;;;;;;22.70;12.15;;;;;;;13.07;65.97;100129.50;4845170;29;20130;-53
2021/10/21 02:38:42;;;;;;;16.95;11.73;;;;;;;13.08;65.54;100129.09;4846061;29;20060;-50
2021/10/21 02:41:08;;;;;;;15.68;10.82;;;;;;;13.08;65.85;100117.81;4846596;29;20096;-56
2021/10/21 02:43:34;;;;;;;15.38;10.82;;;;;;;13.11;65.80;100119.75;4846607;29;20026;-58
2021/10/21 02:46:02;;;;;;;15.30;11.18;;;;;;;13.14;66.06;100113.25;4847121;29;20037;-58
2021/10/21 02:48:28;;;;;;;16.63;11.45;;;;;;;13.19;65.76;100118.47;4846212;29;20030;-57
2021/10/21 02:50:53;;;;;;;16.42;11.48;;;;;;;13.22;65.52;100117.63;4846771;29;20029;-57
2021/10/21 02:53:18;;;;;;;17.45;10.35;;;;;;;13.22;65.36;100114.81;4846345;29;20029;-58
2021/10/21 02:55:44;;;;;;;17.25;11.38;;;;;;;13.25;65.39;100116.75;4847037;29;20030;-59
2021/10/21 02:58:09;;;;;;;20.00;12.18;;;;;;;13.27;65.06;100103.03;4846696;29;20026;-57
2021/10/21 03:00:35;;;;;;;14.82;11.15;;;;;;;13.24;65.16;100103.88;4847205;29;20120;-59
2021/10/21 03:03:00;;;;;;;16.35;11.35;;;;;;;13.27;65.10;100108.66;4846601;29;20026;-57
2021/10/21 03:05:25;;;;;;;16.63;11.95;;;;;;;13.26;64.59;100112.72;4846489;29;20061;-58
2021/10/21 03:07:51;;;;;;;19.73;12.68;;;;;;;13.26;65.13;100117.56;4846674;29;20030;-57
2021/10/21 03:10:16;;;;;;;16.95;11.75;;;;;;;13.24;64.88;100103.88;4846871;29;20033;-57
2021/10/21 03:12:42;;;;;;;15.98;11.50;;;;;;;13.25;64.67;100113.94;4846960;29;20018;-58
2021/10/21 03:15:07;;;;;;;16.83;12.10;;;;;;;13.24;64.62;100105.91;4846635;29;20299;-58
2021/10/21 03:17:33;;;;;;;20.80;11.93;;;;;;;13.23;64.80;100095.84;4846589;29;20034;-60
2021/10/21 03:19:58;;;;;;;17.38;11.40;;;;;;;13.26;63.90;100101.44;4847036;29;20410;-59
2021/10/21 03:22:24;;;;;;;23.30;12.50;;;;;;;13.28;63.94;100092.53;4846229;29;20114;-57
2021/10/21 03:24:52;;;;;;;17.02;12.93;;;;;;;13.24;64.49;100092.59;4845890;29;20159;-59
2021/10/21 03:27:18;;;;;;;21.83;13.05;;;;;;;13.23;63.94;100088.16;4845286;29;20101;-57
2021/10/21 03:29:43;;;;;;;20.35;13.70;;;;;;;13.24;64.15;100092.59;4846456;29;20419;-57
2021/10/21 03:32:09;;;;;;;17.92;12.30;;;;;;;13.19;64.57;100078.97;4846460;29;20109;-57
2021/10/21 03:34:34;;;;;;;22.00;13.30;;;;;;;13.21;64.44;100078.53;4846276;29;20112;-59
2021/10/21 03:37:00;;;;;;;20.52;12.80;;;;;;;13.15;64.14;100072.56;4846227;29;20078;-58
2021/10/21 03:39:26;;;;;;;25.88;12.75;;;;;;;13.15;64.49;100063.31;4846222;29;20038;-58
2021/10/21 03:41:51;;;;;;;19.25;13.40;;;;;;;13.10;64.60;100060.94;4846556;29;20031;-55
2021/10/21 03:44:16;;;;;;;17.25;12.55;;;;;;;13.05;64.91;100067.06;4846262;29;20323;-57
2021/10/21 03:46:42;;;;;;;27.35;12.73;;;;;;;13.03;64.70;100064.69;4846034;29;20086;-58
2021/10/21 03:49:07;;;;;;;20.45;13.50;;;;;;;13.02;65.03;100067.94;4846210;29;20028;-57
2021/10/21 03:51:33;;;;;;;22.25;13.60;;;;;;;13.00;64.74;100066.34;4843810;29;20042;-58
2021/10/21 03:53:58;;;;;;;20.63;12.77;;;;;;;12.99;64.70;100055.47;4829745;29;20033;-52
2021/10/21 03:56:23;;;;;;;19.60;13.57;;;;;;;12.98;64.56;100054.69;4846013;29;20029;-57
2021/10/21 03:58:49;;;;;;;21.10;13.60;;;;;;;12.98;65.21;100063.16;4845586;29;20082;-60
2021/10/21 04:01:14;;;;;;;18.55;12.93;;;;;;;12.97;65.31;100052.28;4845857;29;20029;-58
2021/10/21 04:03:39;;;;;;;28.10;14.48;;;;;;;12.92;64.99;100053.56;4845694;29;20112;-61
2021/10/21 04:06:05;;;;;;;20.60;11.98;;;;;;;12.87;64.69;100039.94;4845585;29;20060;-58
2021/10/21 04:08:30;;;;;;;16.35;12.68;;;;;;;12.84;65.37;100054.09;4829456;29;20022;-55
2021/10/21 04:10:55;;;;;;;19.38;13.02;;;;;;;12.83;65.45;100050.47;4845480;29;20086;-53
2021/10/21 04:13:21;;;;;;;19.73;13.07;;;;;;;12.81;65.66;100049.31;4845766;29;20050;-58
2021/10/21 04:15:47;;;;;;;22.38;13.25;;;;;;;12.77;65.46;100046.53;4845342;29;20311;-58
2021/10/21 04:18:12;;;;;;;21.25;13.73;;;;;;;12.74;66.01;100044.59;4845493;29;20054;-54
2021/10/21 04:20:37;;;;;;;22.45;13.45;;;;;;;12.73;66.02;100040.16;4845263;29;20466;-57
2021/10/21 04:23:03;;;;;;;19.95;12.50;;;;;;;12.74;66.12;100040.97;4845630;29;20348;-55
2021/10/21 04:25:28;;;;;;;23.55;13.38;;;;;;;12.75;66.28;100036.91;4845329;29;20359;-61
2021/10/21 04:27:54;;;;;;;21.25;12.02;;;;;;;12.75;65.66;100034.09;4845261;29;20514;-59
2021/10/21 04:30:20;;;;;;;16.98;11.95;;;;;;;12.72;65.69;100038.56;4845401;29;20025;-55
2021/10/21 04:32:46;;;;;;;18.05;11.52;;;;;;;12.69;65.22;100028.94;4845428;29;20091;-57
2021/10/21 04:35:12;;;;;;;19.02;11.82;;;;;;;12.69;65.92;100030.97;4843858;29;20053;-60
2021/10/21 04:37:37;;;;;;;18.38;12.10;;;;;;;12.65;65.75;100033.03;4839864;29;20033;-59
2021/10/21 04:40:04;;;;;;;16.73;11.02;;;;;;;12.66;65.90;100035.44;4841664;29;20026;-57
2021/10/21 04:42:29;;;;;;;18.45;11.70;;;;;;;12.63;66.11;100021.41;4844926;29;20113;-54
2021/10/21 04:44:56;;;;;;;17.73;10.85;;;;;;;12.63;65.97;100019.38;4845273;29;20109;-60
2021/10/21 04:47:21;;;;;;;18.48;11.35;;;;;;;12.64;66.14;100023.78;4845168;29;20066;-55
2021/10/21 04:49:46;;;;;;;22.52;12.73;;;;;;;12.65;65.86;100016.94;4837451;29;20057;-53
2021/10/21 04:52:12;;;;;;;18.90;12.57;;;;;;;12.64;65.73;100009.69;4834041;29;20041;-52
2021/10/21 04:54:38;;;;;;;17.15;11.68;;;;;;;12.64;65.61;100011.72;4839328;29;20415;-56
2021/10/21 04:57:05;;;;;;;23.02;14.50;;;;;;;12.67;65.70;100006.00;4837676;29;20097;-57
2021/10/21 04:59:30;;;;;;;31.10;18.02;;;;;;;12.66;65.94;99995.97;4835922;29;20038;-55
2021/10/21 05:01:55;;;;;;;24.65;13.85;;;;;;;12.68;65.66;100001.97;4839838;29;20097;-48
2021/10/21 05:04:21;;;;;;;20.60;12.32;;;;;;;12.69;65.98;100002.78;4828084;29;20407;-51
2021/10/21 05:06:46;;;;;;;18.85;11.27;;;;;;;12.66;65.79;99995.97;4833122;29;20439;-55
2021/10/21 05:09:15;;;;;;;17.63;12.77;;;;;;;12.71;65.19;99988.25;4838809;29;20033;-60
2021/10/21 05:11:40;;;;;;;22.73;12.32;;;;;;;12.69;65.78;99994.31;4839030;29;20037;-51
2021/10/21 05:14:06;;;;;;;19.13;12.85;;;;;;;12.66;65.99;99998.78;4843921;29;20370;-57
2021/10/21 05:16:31;;;;;;;16.92;11.02;;;;;;;12.66;65.69;100000.81;4842024;29;20022;-53
2021/10/21 05:18:57;;;;;;;13.25;8.93;;;;;;;12.66;65.90;99987.50;4842288;29;20095;-57
2021/10/21 05:21:22;;;;;;;13.32;8.38;;;;;;;12.65;65.63;99979.47;4842783;29;20046;-49
2021/10/21 05:23:48;;;;;;;12.18;7.93;;;;;;;12.64;65.50;99992.78;4484617;29;10000631;-50
2021/10/21 05:26:13;;;;;;;11.27;8.07;;;;;;;12.66;65.56;99987.50;4822264;29;20187;-54
2021/10/21 05:28:38;;;;;;;14.63;8.18;;;;;;;12.67;65.78;99999.59;4823048;29;20022;-54
2021/10/21 05:31:04;;;;;;;10.43;7.72;;;;;;;12.69;65.99;99995.09;4823004;29;20187;-56
2021/10/21 05:33:34;;;;;;;11.07;8.48;;;;;;;12.68;65.99;99996.34;4823016;29;20065;-57
2021/10/21 05:36:01;;;;;;;10.63;7.60;;;;;;;12.72;65.84;99993.44;4823636;29;20050;-58
2021/10/21 05:38:26;;;;;;;10.60;7.30;;;;;;;12.75;65.66;99994.63;4823822;29;20532;-53
2021/10/21 05:40:52;;;;;;;17.45;7.53;;;;;;;12.75;65.78;99992.59;4824302;29;20555;-54
2021/10/21 05:43:18;;;;;;;12.10;7.20;;;;;;;12.77;65.75;100000.63;4823847;29;20034;-56
2021/10/21 05:45:44;;;;;;;12.50;6.78;;;;;;;12.79;65.24;99998.19;4823732;29;20104;-58
2021/10/21 05:48:12;;;;;;;13.85;7.53;;;;;;;12.85;65.53;99999.28;4823906;29;20026;-56
2021/10/21 05:50:37;;;;;;;11.23;6.28;;;;;;;12.90;65.04;99990.34;4824085;29;20032;-52
2021/10/21 05:53:03;;;;;;;12.48;6.78;;;;;;;12.97;64.58;99993.84;4145362;29;20003824;-50
2021/10/21 05:55:28;;;;;;;10.15;6.97;;;;;;;13.00;64.48;99990.16;4823794;29;20308;-58
2021/10/21 05:57:53;;;;;;;9.02;5.90;;;;;;;13.06;64.08;99990.47;4842106;29;20053;-56
2021/10/21 06:00:19;;;;;;;13.40;7.00;;;;;;;13.12;64.21;99985.13;4843826;29;20053;-54
2021/10/21 06:02:44;;;;;;;9.48;6.82;;;;;;;13.20;63.60;99981.00;4844407;29;20029;-55
2021/10/21 06:05:09;;;;;;;12.45;7.22;;;;;;;13.26;63.90;99990.56;4843924;29;20038;-55
2021/10/21 06:07:35;;;;;;;10.52;6.85;;;;;;;13.34;63.28;99991.22;4844062;29;20094;-54
2021/10/21 06:10:00;;;;;;;12.25;6.38;;;;;;;13.38;63.41;100006.06;4844044;29;20033;-54
2021/10/21 06:12:26;;;;;;;10.40;6.45;;;;;;;13.43;63.10;99994.28;4843784;29;20051;-56
2021/10/21 06:14:51;;;;;;;7.80;5.18;;;;;;;13.47;63.28;99992.19;4843763;29;20037;-60
2021/10/21 06:17:17;;;;;;;5.50;4.82;;;;;;;13.52;62.67;99997.34;4843673;29;20030;-56
2021/10/21 06:19:43;;;;;;;16.77;5.90;;;;;;;13.58;62.90;99998.44;4843831;29;20058;-58
2021/10/21 06:22:10;;;;;;;10.25;5.75;;;;;;;13.67;62.85;99981.69;4843997;29;20436;-55
2021/10/21 06:24:36;;;;;;;8.77;5.53;;;;;;;13.75;62.25;99983.16;4831550;29;20034;-53
2021/10/21 06:27:02;;;;;;;8.73;5.78;;;;;;;13.84;62.28;99988.22;4827633;29;20038;-54
2021/10/21 06:29:27;;;;;;;8.68;5.10;;;;;;;13.89;61.55;99985.69;4843607;29;20092;-54
2021/10/21 06:31:54;;;;;;;8.65;5.40;;;;;;;13.97;61.03;99980.69;4843930;29;20422;-57
2021/10/21 06:34:20;;;;;;;6.22;5.13;;;;;;;14.01;61.17;99987.06;4843679;29;20029;-56
2021/10/21 06:36:45;;;;;;;9.25;5.68;;;;;;;14.04;61.06;99982.56;4843880;29;20033;-56
2021/10/21 06:39:11;;;;;;;15.50;7.55;;;;;;;14.10;60.81;99983.66;4846107;29;20034;-57
2021/10/21 06:41:36;;;;;;;7.97;4.82;;;;;;;14.18;60.87;99976.59;4847105;29;20117;-57
2021/10/21 06:44:01;;;;;;;8.07;4.72;;;;;;;14.23;60.31;99982.53;4846982;29;20415;-54
2021/10/21 06:46:27;;;;;;;8.63;4.93;;;;;;;14.29;60.04;99974.34;4846745;29;20308;-58
2021/10/21 06:48:54;;;;;;;7.55;5.88;;;;;;;14.32;59.98;99973.47;4847109;29;20026;-56
2021/10/21 06:51:21;;;;;;;8.23;5.32;;;;;;;14.34;59.97;99973.03;4847082;29;20030;-55
2021/10/21 06:53:46;;;;;;;8.90;5.72;;;;;;;14.34;60.25;99971.00;4846666;29;20121;-54
2021/10/21 06:56:12;;;;;;;7.50;5.65;;;;;;;14.38;59.72;99970.91;4846944;29;20117;-57
2021/10/21 06:58:37;;;;;;;12.10;5.18;;;;;;;14.40;59.34;99971.25;4846378;29;20030;-56
2021/10/21 07:01:03;;;;;;;9.80;5.53;;;;;;;14.44;58.92;99981.28;4847112;29;20382;-57
2021/10/21 07:03:28;;;;;;;9.10;5.65;;;;;;;14.45;58.92;99979.25;4846297;29;20166;-57
2021/10/21 07:05:54;;;;;;;7.47;5.40;;;;;;;14.46;59.03;99973.16;4846741;29;20070;-57
2021/10/21 07:08:25;;;;;;;13.10;5.88;;;;;;;14.44;58.98;99978.47;4846499;29;20026;-53
2021/10/21 07:10:50;;;;;;;10.00;6.70;;;;;;;14.47;58.37;99974.75;4846543;29;20029;-51
2021/10/21 07:13:15;;;;;;;9.00;5.85;;;;;;;14.47;58.37;99971.13;4846307;29;20764;-48
2021/10/21 07:15:41;;;;;;;10.95;6.72;;;;;;;14.48;58.12;99979.16;4846214;29;20026;-57
2021/10/21 07:18:06;;;;;;;8.98;6.20;;;;;;;14.47;57.85;99974.75;4846398;29;20077;-54
2021/10/21 07:20:32;;;;;;;12.50;7.13;;;;;;;14.49;58.36;99982.78;4846055;29;20037;-51
2021/10/21 07:22:57;;;;;;;15.43;5.97;;;;;;;14.50;57.94;99973.88;4846669;29;20140;-56
2021/10/21 07:28:07;;;;;;;7.95;6.00;;;;;;;14.67;57.52;99983.19;4846328;29;20111;-56
2021/10/21 07:30:33;;;;;;;10.07;5.90;;;;;;;14.85;57.08;99977.09;4846276;29;20448;-48
2021/10/21 07:32:58;;;;;;;11.90;5.68;;;;;;;15.02;56.77;99970.16;4846118;29;20033;-57
2021/10/21 07:35:25;;;;;;;11.50;6.28;;;;;;;15.17;55.99;99964.94;4846125;29;20028;-51
2021/10/21 07:37:51;;;;;;;7.80;5.45;;;;;;;15.32;55.46;99965.34;4846522;29;20510;-53
2021/10/21 07:40:16;;;;;;;12.35;6.18;;;;;;;15.41;54.52;99962.69;4845843;29;20029;-57
2021/10/21 07:42:42;;;;;;;8.48;5.97;;;;;;;15.48;53.84;99973.03;4845984;29;20034;-54
2021/10/21 07:45:09;;;;;;;11.25;5.95;;;;;;;15.53;53.80;99969.66;4846058;29;20061;-56
2021/10/21 07:47:36;;;;;;;16.55;6.25;;;;;;;15.55;54.20;99962.28;4845986;29;20026;-58
2021/10/21 07:50:03;;;;;;;11.50;5.88;;;;;;;15.63;53.21;99958.06;4845523;29;20044;-54
2021/10/21 07:52:29;;;;;;;11.18;6.05;;;;;;;15.75;53.92;99965.00;4845916;29;20041;-56
2021/10/21 07:54:54;;;;;;;10.63;5.78;;;;;;;15.84;53.37;99956.63;4845961;29;20030;-53
2021/10/21 07:57:20;;;;;;;10.82;5.22;;;;;;;15.93;52.75;99950.34;4845208;29;20034;-52
2021/10/21 07:59:46;;;;;;;8.85;4.93;;;;;;;16.04;51.39;99948.75;4845912;29;20046;-57
2021/10/21 08:02:12;;;;;;;14.23;5.60;;;;;;;16.14;51.64;99946.84;4845703;29;20033;-58
2021/10/21 08:04:38;;;;;;;19.00;6.30;;;;;;;16.21;51.69;99943.81;4845748;29;20026;-54
2021/10/21 08:07:04;;;;;;;21.20;5.05;;;;;;;16.31;50.85;99934.16;4829612;29;20099;-56
2021/10/21 08:09:30;;;;;;;27.27;5.18;;;;;;;16.41;51.40;99925.75;4846144;29;20322;-49
2021/10/21 08:12:02;;;;;;;95.13;9.68;;;;;;;16.53;50.67;99928.59;4845693;29;20068;-57
2021/10/21 08:14:27;;;;;;;29.10;6.18;;;;;;;16.64;50.64;99923.34;4845663;29;20022;-56
2021/10/21 08:16:53;;;;;;;24.67;4.68;;;;;;;16.80;49.98;99918.84;4845619;29;20319;-55
2021/10/21 08:19:19;;;;;;;73.32;7.68;;;;;;;16.94;49.39;99913.44;4845033;29;20129;-54
2021/10/21 08:21:47;;;;;;;46.22;6.18;;;;;;;17.04;48.49;99917.19;4845635;29;20045;-55
2021/10/21 08:24:14;;;;;;;30.58;6.97;;;;;;;17.10;48.51;99929.56;4845421;29;20061;-59
2021/10/21 08:26:41;;;;;;;48.78;6.80;;;;;;;17.15;48.91;99920.44;4845399;29;20365;-57
2021/10/21 08:29:07;;;;;;;48.83;7.00;;;;;;;17.22;48.53;99916.56;4845562;29;20327;-50
2021/10/21 08:31:33;;;;;;;18.35;5.72;;;;;;;17.34;48.19;99924.25;4845357;29;20121;-50
2021/10/21 08:33:59;;;;;;;34.90;7.03;;;;;;;17.46;48.12;99929.06;4845275;29;20026;-55
2021/10/21 08:36:24;;;;;;;38.28;6.68;;;;;;;17.60;47.79;99905.03;4844926;29;20091;-56
2021/10/21 08:38:51;;;;;;;43.28;6.68;;;;;;;17.71;47.63;99901.81;4845233;29;20026;-55
2021/10/21 08:41:18;;;;;;;36.85;6.15;;;;;;;17.78;47.77;99913.69;4828712;29;20032;-53
2021/10/21 08:43:44;;;;;;;40.65;5.32;;;;;;;17.92;46.84;99906.69;4845101;29;20106;-55
2021/10/21 08:46:36;;;;;;;22.10;5.05;;;;;;;18.05;46.52;99896.00;4845552;29;20087;-52
2021/10/21 08:49:03;;;;;;;14.30;5.15;;;;;;;18.09;47.01;99899.53;4825336;29;20107;-55
2021/10/21 08:51:30;;;;;;;29.52;5.32;;;;;;;18.19;46.96;99904.00;4845036;29;20022;-55
2021/10/21 08:53:57;;;;;;;15.18;5.13;;;;;;;18.23;47.35;99907.50;4844860;29;20064;-54
2021/10/21 08:56:26;;;;;;;38.65;6.68;;;;;;;18.32;46.65;99895.34;4845083;29;20039;-57
2021/10/21 08:58:54;;;;;;;14.77;5.63;;;;;;;18.42;47.19;99881.97;4844864;29;20030;-49
2021/10/21 09:01:25;;;;;;;16.75;4.40;;;;;;;18.56;46.86;99892.75;4844139;29;20030;-53
2021/10/21 09:04:01;;;;;;;17.47;4.70;;;;;;;18.67;46.23;99887.44;4844862;29;20069;-47
2021/10/21 09:09:18;;;;;;;44.15;6.53;;;;;;;18.79;46.01;99892.22;4844602;29;20050;-52
2021/10/21 09:11:43;;;;;;;18.60;5.13;;;;;;;18.88;45.78;99884.94;4844952;29;20353;-51
2021/10/21 09:14:11;;;;;;;11.65;4.72;;;;;;;18.87;46.34;99886.22;4844584;29;20086;-55
2021/10/21 09:16:41;;;;;;;15.93;4.93;;;;;;;18.97;46.15;99887.81;4844507;29;20041;-57
2021/10/21 09:19:11;;;;;;;39.42;6.72;;;;;;;19.11;45.46;99892.88;4844404;29;20050;-53
2021/10/21 09:21:40;;;;;;;19.23;4.23;;;;;;;19.21;45.14;99896.56;4844721;29;20380;-58
2021/10/21 09:24:26;;;;;;;15.90;4.25;;;;;;;19.34;45.16;99889.41;4844446;29;20030;-58
2021/10/21 09:27:15;;;;;;;16.70;4.43;;;;;;;19.42;45.18;99869.94;4844890;29;20030;-47
2021/10/21 09:29:48;;;;;;;12.50;3.83;;;;;;;19.46;45.61;99881.97;4844446;29;20078;-56
2021/10/21 09:32:20;;;;;;;12.20;3.97;;;;;;;19.58;45.02;99883.88;4844641;29;20022;-52
2021/10/21 09:34:51;;;;;;;32.70;4.97;;;;;;;19.61;44.59;99885.78;4844539;29;20022;-57
2021/10/21 09:37:19;;;;;;;59.00;6.35;;;;;;;19.64;44.68;99887.66;4844317;29;20034;-54
2021/10/21 09:39:59;;;;;;;29.40;4.95;;;;;;;19.62;44.96;99892.28;4844171;29;20034;-49
2021/10/21 09:42:30;;;;;;;39.45;4.97;;;;;;;19.64;45.16;99895.44;4844320;29;20451;-51
2021/10/21 09:45:12;;;;;;;29.38;5.40;;;;;;;19.66;45.61;99902.25;4844644;29;20121;-54
2021/10/21 09:47:39;;;;;;;17.58;4.55;;;;;;;19.78;45.57;99889.09;4844494;29;20030;-55
2021/10/21 09:50:31;;;;;;;76.22;8.75;;;;;;;19.82;44.25;99903.97;4844530;29;20113;-55
2021/10/21 09:53:19;;;;;;;21.13;3.90;;;;;;;19.80;44.11;99872.28;4844178;29;20032;-58
2021/10/21 09:55:53;;;;;;;25.48;4.80;;;;;;;19.76;44.02;99891.63;4844643;29;20037;-52
2021/10/21 09:58:26;;;;;;;53.08;6.75;;;;;;;19.73;44.95;99884.03;4844119;29;20030;-54
2021/10/21 10:01:04;;;;;;;11.35;4.97;;;;;;;19.67;44.60;99878.16;4844728;29;20037;-52
2021/10/21 10:03:31;;;;;;;8.35;4.20;;;;;;;19.65;45.05;99885.63;4844202;29;20029;-56
2021/10/21 10:05:57;;;;;;;39.00;5.50;;;;;;;19.71;44.24;99869.44;4844352;29;20073;-55
2021/10/21 10:08:24;;;;;;;24.83;5.20;;;;;;;19.79;44.14;99867.06;4844032;29;20030;-55
2021/10/21 10:10:55;;;;;;;13.30;4.10;;;;;;;19.81;44.10;99876.72;4844086;29;20091;-60
2021/10/21 10:13:22;;;;;;;11.80;3.83;;;;;;;19.88;44.42;99870.69;4845581;29;20094;-58
2021/10/21 10:15:50;;;;;;;8.82;4.05;;;;;;;19.94;43.81;99870.81;4847495;29;20103;-58
2021/10/21 10:18:18;;;;;;;8.65;3.83;;;;;;;20.03;43.97;99865.09;4847809;29;20042;-58
2021/10/21 10:20:51;;;;;;;21.83;5.22;;;;;;;20.15;42.80;99860.44;4847689;29;20054;-57
2021/10/21 10:23:19;;;;;;;34.65;6.00;;;;;;;20.19;43.29;99863.91;4847667;29;20029;-58
2021/10/21 10:25:46;;;;;;;16.40;4.30;;;;;;;20.25;43.90;99848.50;4831045;29;20304;-57
2021/10/21 10:28:13;;;;;;;14.93;4.15;;;;;;;20.32;43.80;99847.38;4847597;29;20034;-57
2021/10/21 10:30:50;;;;;;;7.68;4.30;;;;;;;20.40;43.20;99857.19;4847796;29;20026;-56
2021/10/21 10:33:43;;;;;;;14.95;4.25;;;;;;;20.53;42.77;99846.34;4847561;29;20414;-58
2021/10/21 10:36:23;;;;;;;15.63;4.30;;;;;;;20.55;42.88;99843.81;4847037;29;20034;-58
2021/10/21 10:38:50;;;;;;;12.90;4.07;;;;;;;20.56;42.84;99851.09;4847368;29;20041;-58
2021/10/21 10:41:41;;;;;;;8.35;3.85;;;;;;;20.57;43.45;99852.69;4847313;29;20041;-58
2021/10/21 10:44:08;;;;;;;14.10;4.18;;;;;;;20.61;43.31;99843.94;4835189;29;20037;-57
2021/10/21 10:47:04;;;;;;;10.23;3.80;;;;;;;20.70;42.87;99834.50;4830861;29;20045;-57
2021/10/21 10:49:41;;;;;;;13.10;3.97;;;;;;;20.73;42.70;99833.53;4845023;29;20034;-58
2021/10/21 10:52:10;;;;;;;12.18;3.97;;;;;;;20.71;42.44;99836.09;4847218;29;20030;-57
2021/10/21 10:54:50;;;;;;;10.70;3.80;;;;;;;20.71;42.90;99833.22;4847273;29;20040;-57
2021/10/21 10:57:36;;;;;;;15.50;4.40;;;;;;;20.68;43.13;99829.28;4830508;29;20426;-59
2021/10/21 11:00:44;;;;;;;7.07;3.90;;;;;;;20.68;44.03;99837.84;4830967;29;20049;-57
2021/10/21 11:03:10;;;;;;;15.88;4.18;;;;;;;20.73;43.27;99842.09;4847084;29;20103;-58
2021/10/21 11:05:45;;;;;;;10.30;4.57;;;;;;;20.65;42.83;99833.91;4846467;29;20030;-59
2021/10/21 11:08:13;;;;;;;14.27;4.10;;;;;;;20.59;42.99;99835.84;4846986;29;20491;-56
2021/10/21 11:10:42;;;;;;;10.05;3.90;;;;;;;20.55;43.42;99829.53;4846872;29;20318;-58
2021/10/21 11:13:41;;;;;;;16.55;3.75;;;;;;;20.53;43.41;99828.41;4846927;29;20034;-56
2021/10/21 11:16:41;;;;;;;12.52;3.70;;;;;;;20.59;43.78;99827.28;4797016;29;20049;-59
2021/10/21 11:19:08;;;;;;;8.48;4.13;;;;;;;20.62;43.97;99836.94;4846448;29;20064;-58
2021/10/21 11:21:52;;;;;;;22.35;3.72;;;;;;;20.79;43.20;99825.88;4846717;29;20113;-59
2021/10/21 11:24:47;;;;;;;20.23;4.05;;;;;;;20.86;43.20;99819.81;4845683;29;20445;-59
2021/10/21 11:27:17;;;;;;;54.25;5.47;;;;;;;20.94;42.66;99824.66;4846592;29;20030;-57